createdAt,value
2023-05-23T00:01:21.405Z,72.73
2023-05-23T00:03:49.456Z,72.48
2023-05-23T00:06:21.277Z,72.61
2023-05-23T00:08:48.310Z,73.10
2023-05-23T00:11:15.324Z,73.08
2023-05-23T00:13:42.272Z,73.39
2023-05-23T00:16:09.770Z,73.08
2023-05-23T00:18:38.441Z,72.78
2023-05-23T00:21:05.182Z,72.77
2023-05-23T00:23:34.013Z,73.27
2023-05-23T00:26:00.741Z,72.90
2023-05-23T00:28:28.092Z,73.36
2023-05-23T00:30:54.824Z,73.13
2023-05-23T00:33:22.202Z,73.22
2023-05-23T00:35:49.326Z,72.95
2023-05-23T00:38:16.868Z,73.32
2023-05-23T00:40:43.526Z,73.54
2023-05-23T00:43:10.240Z,73.61
2023-05-23T00:45:36.898Z,73.87
2023-05-23T00:48:03.680Z,74.04
2023-05-23T00:50:30.525Z,74.00
2023-05-23T00:52:57.917Z,74.99
2023-05-23T00:55:25.130Z,74.92
2023-05-23T00:57:55.715Z,74.09
2023-05-23T01:00:23.178Z,74.24
2023-05-23T01:02:53.564Z,74.13
2023-05-23T01:05:22.738Z,74.10
2023-05-23T01:07:50.133Z,74.43
2023-05-23T01:10:17.866Z,74.64
2023-05-23T01:12:57.358Z,74.38
2023-05-23T01:15:29.682Z,74.29
2023-05-23T01:18:02.794Z,73.86
2023-05-23T01:20:31.716Z,74.51
2023-05-23T01:23:01.159Z,74.01
2023-05-23T01:25:58.293Z,73.63
2023-05-23T01:28:32.743Z,73.89
2023-05-23T01:30:59.441Z,74.02
2023-05-23T01:33:26.427Z,74.07
2023-05-23T01:35:53.081Z,73.68
2023-05-23T01:38:19.761Z,73.54
2023-05-23T01:40:46.463Z,73.71
2023-05-23T01:43:13.078Z,73.74
2023-05-23T01:45:39.989Z,74.06
2023-05-23T01:48:06.855Z,73.74
2023-05-23T01:50:33.566Z,74.15
2023-05-23T01:53:00.549Z,74.35
2023-05-23T01:55:27.262Z,74.22
2023-05-23T01:57:55.571Z,74.84
2023-05-23T02:00:22.403Z,74.45
2023-05-23T02:02:49.146Z,74.69
2023-05-23T02:05:15.864Z,74.50
2023-05-23T02:07:42.626Z,74.36
2023-05-23T02:10:09.714Z,74.66
2023-05-23T02:12:36.566Z,74.70
2023-05-23T02:15:03.455Z,74.02
2023-05-23T02:17:30.802Z,74.08
2023-05-23T02:19:57.591Z,73.91
2023-05-23T02:22:27.116Z,74.03
2023-05-23T02:24:53.766Z,74.14
2023-05-23T02:27:20.453Z,73.89
2023-05-23T02:29:47.156Z,73.74
2023-05-23T02:32:13.837Z,73.72
2023-05-23T02:34:40.703Z,73.66
2023-05-23T02:37:07.577Z,73.85
2023-05-23T02:39:36.314Z,73.95
2023-05-23T02:42:03.222Z,74.21
2023-05-23T02:44:29.937Z,74.65
2023-05-23T02:46:56.580Z,73.88
2023-05-23T02:49:23.276Z,74.22
2023-05-23T02:51:50.110Z,74.24
2023-05-23T02:54:16.978Z,74.31
2023-05-23T02:56:45.431Z,74.25
2023-05-23T02:59:12.478Z,74.60
2023-05-23T03:01:39.149Z,74.55
2023-05-23T03:04:05.985Z,74.57
2023-05-23T03:06:34.184Z,74.98
2023-05-23T03:09:01.540Z,75.16
2023-05-23T03:11:29.960Z,75.21
2023-05-23T03:13:56.920Z,75.47
2023-05-23T03:16:24.525Z,75.79
2023-05-23T03:18:51.361Z,75.57
2023-05-23T03:21:18.155Z,75.35
2023-05-23T03:23:44.816Z,75.04
2023-05-23T03:26:11.893Z,75.02
2023-05-23T03:28:38.619Z,75.29
2023-05-23T03:31:05.548Z,75.34
2023-05-23T03:33:32.273Z,74.73
2023-05-23T03:35:59.013Z,74.57
2023-05-23T03:38:26.334Z,74.96
2023-05-23T03:40:53.053Z,74.38
2023-05-23T03:43:19.741Z,74.28
2023-05-23T03:45:46.521Z,74.18
2023-05-23T03:48:13.241Z,73.83
2023-05-23T03:50:39.947Z,73.91
2023-05-23T03:53:07.300Z,73.11
2023-05-23T03:55:34.428Z,72.77
2023-05-23T03:58:01.139Z,72.67
2023-05-23T04:00:27.989Z,72.25
2023-05-23T04:02:55.069Z,71.94
2023-05-23T04:05:21.907Z,71.60
2023-05-23T04:07:49.293Z,71.25
2023-05-23T04:10:16.468Z,70.97
2023-05-23T04:12:43.738Z,70.89
2023-05-23T04:15:11.452Z,70.81
2023-05-23T04:17:39.001Z,70.54
2023-05-23T04:20:10.279Z,70.32
2023-05-23T04:22:37.238Z,69.72
2023-05-23T04:25:04.326Z,69.53
2023-05-23T04:27:31.069Z,69.18
2023-05-23T04:29:58.822Z,68.91
2023-05-23T04:32:26.273Z,69.07
2023-05-23T04:34:53.010Z,68.43
2023-05-23T04:37:26.191Z,68.39
2023-05-23T04:39:53.433Z,68.00
2023-05-23T04:42:24.530Z,67.62
2023-05-23T04:44:52.862Z,66.80
2023-05-23T04:47:19.710Z,65.54
2023-05-23T04:49:46.343Z,63.55
2023-05-23T04:52:13.491Z,62.08
2023-05-23T04:54:45.110Z,59.73
2023-05-23T04:57:12.510Z,56.65
2023-05-23T04:59:39.517Z,53.31
2023-05-23T05:02:06.596Z,48.01
2023-05-23T05:04:33.276Z,43.98
2023-05-23T05:07:00.031Z,41.20
2023-05-23T05:09:26.710Z,38.79
2023-05-23T05:11:53.355Z,36.71
2023-05-23T05:14:20.082Z,35.62
2023-05-23T05:16:48.039Z,33.92
2023-05-23T05:19:14.961Z,32.31
2023-05-23T05:21:41.779Z,31.60
2023-05-23T05:24:11.232Z,30.46
2023-05-23T05:26:37.940Z,29.01
2023-05-23T05:29:04.700Z,28.34
2023-05-23T05:31:31.447Z,27.56
2023-05-23T05:33:58.544Z,26.60
2023-05-23T05:36:25.229Z,25.89
2023-05-23T05:38:53.238Z,25.77
2023-05-23T05:41:24.378Z,25.41
2023-05-23T05:43:51.167Z,25.10
2023-05-23T05:46:17.836Z,24.40
2023-05-23T05:48:45.963Z,23.84
2023-05-23T05:51:12.650Z,23.03
2023-05-23T05:53:39.307Z,23.10
2023-05-23T05:56:06.197Z,22.06
2023-05-23T05:58:32.958Z,21.66
2023-05-23T06:00:59.937Z,21.44
2023-05-23T06:03:27.496Z,20.68
2023-05-23T06:05:54.391Z,20.51
2023-05-23T06:08:21.050Z,19.70
2023-05-23T06:10:47.813Z,19.35
2023-05-23T06:13:14.883Z,18.69
2023-05-23T06:15:41.560Z,19.10
2023-05-23T06:18:08.251Z,18.82
2023-05-23T06:20:34.900Z,18.24
2023-05-23T06:23:01.925Z,18.48
2023-05-23T06:25:28.657Z,17.63
2023-05-23T06:27:55.545Z,17.33
2023-05-23T06:30:23.276Z,17.52
2023-05-23T06:32:50.015Z,17.54
2023-05-23T06:35:17.852Z,17.43
2023-05-23T06:37:46.007Z,17.53
2023-05-23T06:40:14.671Z,16.67
2023-05-23T06:42:41.766Z,16.97
2023-05-23T06:45:09.360Z,16.74
2023-05-23T06:47:36.090Z,16.37
2023-05-23T06:50:03.267Z,16.62
2023-05-23T06:52:29.911Z,16.59
2023-05-23T06:54:56.676Z,16.31
2023-05-23T06:57:23.376Z,16.10
2023-05-23T06:59:50.056Z,15.92
2023-05-23T07:02:16.836Z,16.32
2023-05-23T07:04:43.616Z,16.38
2023-05-23T07:07:10.255Z,17.50
2023-05-23T07:09:38.472Z,18.58
2023-05-23T07:12:06.164Z,19.53
2023-05-23T07:14:35.691Z,21.17
2023-05-23T07:17:02.537Z,21.92
2023-05-23T07:19:29.416Z,23.25
2023-05-23T07:21:56.242Z,24.20
2023-05-23T07:24:25.083Z,25.47
2023-05-23T07:26:52.306Z,27.16
2023-05-23T07:29:19.144Z,27.27
2023-05-23T07:31:46.025Z,28.91
2023-05-23T07:34:12.762Z,30.29
2023-05-23T07:36:40.948Z,31.68
2023-05-23T07:39:08.247Z,32.00
2023-05-23T07:41:34.939Z,32.99
2023-05-23T07:44:01.642Z,33.78
2023-05-23T07:46:28.404Z,33.38
2023-05-23T07:48:55.508Z,33.69
2023-05-23T07:51:22.389Z,33.83
2023-05-23T07:53:49.015Z,34.67
2023-05-23T07:56:16.024Z,34.42
2023-05-23T07:58:46.038Z,34.90
2023-05-23T08:01:12.838Z,36.36
2023-05-23T08:03:39.776Z,36.41
2023-05-23T08:06:07.676Z,35.14
2023-05-23T08:08:34.365Z,35.89
2023-05-23T08:11:01.078Z,35.40
2023-05-23T08:13:28.612Z,35.32
2023-05-23T08:15:57.441Z,36.30
2023-05-23T08:18:24.242Z,36.59
2023-05-23T08:20:51.005Z,37.76
2023-05-23T08:23:18.077Z,37.11
2023-05-23T08:25:44.953Z,35.97
2023-05-23T08:28:11.651Z,37.02
2023-05-23T08:30:38.332Z,36.51
2023-05-23T08:33:05.239Z,36.04
2023-05-23T08:35:36.700Z,36.30
2023-05-23T08:38:06.166Z,36.25
2023-05-23T08:40:33.348Z,36.56
2023-05-23T08:43:00.144Z,35.70
2023-05-23T08:45:27.127Z,35.34
2023-05-23T08:47:53.854Z,34.33
2023-05-23T08:50:23.050Z,33.86
2023-05-23T08:52:57.867Z,36.00
2023-05-23T08:55:27.323Z,36.95
2023-05-23T08:57:54.764Z,37.37
2023-05-23T09:00:22.568Z,36.83
2023-05-23T09:02:49.609Z,38.48
2023-05-23T09:05:17.030Z,39.40
2023-05-23T09:07:47.566Z,39.35
2023-05-23T09:10:14.645Z,38.37
2023-05-23T09:12:41.285Z,40.43
2023-05-23T09:15:09.601Z,39.70
2023-05-23T09:17:36.463Z,40.92
2023-05-23T09:20:23.674Z,40.47
2023-05-23T09:22:50.630Z,39.57
2023-05-23T09:25:17.528Z,38.94
2023-05-23T09:27:47.586Z,38.81
2023-05-23T09:30:15.233Z,38.86
2023-05-23T09:32:42.541Z,39.75
2023-05-23T09:35:14.340Z,39.52
2023-05-23T09:37:45.925Z,40.20
2023-05-23T09:40:14.315Z,40.52
2023-05-23T09:42:46.721Z,41.49
2023-05-23T09:45:14.049Z,40.57
2023-05-23T09:47:52.942Z,41.27
2023-05-23T09:50:20.449Z,42.72
2023-05-23T09:52:51.213Z,42.42
2023-05-23T09:55:18.699Z,42.48
2023-05-23T09:57:45.920Z,42.43
2023-05-23T10:00:13.898Z,42.07
2023-05-23T10:02:59.530Z,42.75
2023-05-23T10:05:41.176Z,41.88
2023-05-23T10:08:39.049Z,42.10
2023-05-23T10:11:14.767Z,42.48
2023-05-23T10:13:42.118Z,42.40
2023-05-23T10:16:27.756Z,43.02
2023-05-23T10:18:58.071Z,42.76
2023-05-23T10:21:28.460Z,41.49
2023-05-23T10:23:55.100Z,42.57
2023-05-23T10:26:22.281Z,41.60
2023-05-23T10:28:48.988Z,43.12
2023-05-23T10:31:15.819Z,42.36
2023-05-23T10:33:44.038Z,41.71
2023-05-23T10:36:19.439Z,42.73
2023-05-23T10:39:00.700Z,41.88
2023-05-23T10:41:56.201Z,40.82
2023-05-23T10:44:30.241Z,40.05
2023-05-23T10:47:04.377Z,40.04
2023-05-23T10:49:37.720Z,41.90
2023-05-23T10:52:04.575Z,40.97
2023-05-23T10:54:48.143Z,43.87
2023-05-23T10:57:22.033Z,44.13
2023-05-23T10:59:52.150Z,45.15
2023-05-23T11:02:25.700Z,43.61
2023-05-23T11:05:23.206Z,42.54
2023-05-23T11:08:11.723Z,43.05
2023-05-23T11:10:59.563Z,43.41
2023-05-23T11:13:26.516Z,42.78
2023-05-23T11:15:53.388Z,42.07
2023-05-23T11:18:39.092Z,42.48
2023-05-23T11:21:05.742Z,40.46
2023-05-23T11:23:44.390Z,42.64
2023-05-23T11:26:30.265Z,41.24
2023-05-23T11:28:57.776Z,40.57
2023-05-23T11:31:24.660Z,41.03
2023-05-23T11:33:51.861Z,41.14
2023-05-23T11:36:18.794Z,43.86
2023-05-23T11:38:45.722Z,41.46
2023-05-23T11:41:12.585Z,40.93
2023-05-23T11:43:49.720Z,39.55
2023-05-23T11:46:16.449Z,40.22
2023-05-23T11:48:46.769Z,39.90
2023-05-23T11:51:13.464Z,40.35
2023-05-23T11:53:40.328Z,40.09
2023-05-23T11:56:07.137Z,41.42
2023-05-23T11:58:37.609Z,41.46
2023-05-23T12:01:08.405Z,44.00
2023-05-23T12:03:35.794Z,43.74
2023-05-23T12:06:02.812Z,44.66
2023-05-23T12:08:29.522Z,48.26
2023-05-23T12:11:00.524Z,48.96
2023-05-23T12:13:28.975Z,50.22
2023-05-23T12:16:06.505Z,52.28
2023-05-23T12:18:38.874Z,55.18
2023-05-23T12:21:08.921Z,56.26
2023-05-23T12:23:36.088Z,58.22
2023-05-23T12:26:08.313Z,60.62
2023-05-23T12:28:47.931Z,58.10
2023-05-23T12:31:19.651Z,60.53
2023-05-23T12:33:48.333Z,61.51
2023-05-23T12:36:41.882Z,65.72
2023-05-23T12:39:15.132Z,70.61
2023-05-23T12:41:42.202Z,72.97
2023-05-23T12:44:08.845Z,78.50
2023-05-23T12:46:35.803Z,78.20
2023-05-23T12:49:02.582Z,79.30
2023-05-23T12:51:29.728Z,81.71
2023-05-23T12:53:58.028Z,83.99
2023-05-23T12:56:25.461Z,85.36
2023-05-23T12:58:53.870Z,86.57
2023-05-23T13:01:20.596Z,88.19
2023-05-23T13:03:47.407Z,88.15
2023-05-23T13:06:14.329Z,87.86
2023-05-23T13:08:41.797Z,88.53
2023-05-23T13:11:08.995Z,88.30
2023-05-23T14:59:58.691Z,68.66
2023-05-23T15:02:25.361Z,67.34
2023-05-23T15:04:52.430Z,68.09
2023-05-23T15:07:19.193Z,67.83
2023-05-23T15:09:47.360Z,67.60
2023-05-23T15:12:15.338Z,67.31
2023-05-23T15:14:43.544Z,65.76
2023-05-23T15:17:12.707Z,66.07
2023-05-23T15:19:42.816Z,64.27
2023-05-23T15:22:18.432Z,64.99
2023-05-23T15:24:58.632Z,65.35
2023-05-23T15:27:25.406Z,65.36
2023-05-23T15:29:52.068Z,64.80
2023-05-23T15:32:18.743Z,65.08
2023-05-23T15:34:45.503Z,65.31
2023-05-23T15:37:12.258Z,65.72
2023-05-23T15:39:38.917Z,66.81
2023-05-23T15:42:06.016Z,67.00
2023-05-23T15:44:32.728Z,68.08
2023-05-23T15:46:59.411Z,69.00
2023-05-23T15:49:27.182Z,67.48
2023-05-23T15:51:55.305Z,64.28
2023-05-23T15:54:22.486Z,65.26
2023-05-23T15:56:49.238Z,65.18
2023-05-23T15:59:15.917Z,64.76
2023-05-23T16:01:42.780Z,65.90
2023-05-23T16:04:09.915Z,65.88
2023-05-23T16:06:36.853Z,67.22
2023-05-23T16:09:03.729Z,67.64
2023-05-23T16:11:30.503Z,68.67
2023-05-23T16:13:57.160Z,69.68
2023-05-23T16:16:23.958Z,69.88
2023-05-23T16:18:50.812Z,69.43
2023-05-23T16:21:20.658Z,69.60
2023-05-23T16:23:50.728Z,69.91
2023-05-23T16:26:19.608Z,70.84
2023-05-23T16:28:46.521Z,71.41
2023-05-23T16:31:14.211Z,72.07
2023-05-23T16:33:41.050Z,71.84
2023-05-23T16:36:07.920Z,71.47
2023-05-23T16:38:34.780Z,70.60
2023-05-23T16:41:01.485Z,70.87
2023-05-23T16:43:28.170Z,71.54
2023-05-23T16:45:54.915Z,71.96
2023-05-23T16:48:22.269Z,73.30
2023-05-23T16:50:48.926Z,74.32
2023-05-23T16:53:15.759Z,74.34
2023-05-23T16:55:42.718Z,75.53
2023-05-23T16:58:09.542Z,76.33
2023-05-23T17:00:36.255Z,77.72
2023-05-23T17:03:03.087Z,77.70
2023-05-23T17:05:29.823Z,77.27
2023-05-23T17:07:56.575Z,77.34
2023-05-23T17:10:23.412Z,77.46
2023-05-23T17:12:50.126Z,78.17
2023-05-23T17:15:16.857Z,78.31
2023-05-23T17:17:43.611Z,78.38
2023-05-23T17:20:10.476Z,78.25
2023-05-23T17:22:38.042Z,78.49
2023-05-23T17:25:06.501Z,78.06
2023-05-23T17:27:33.317Z,78.12
2023-05-23T17:30:00.074Z,77.90
2023-05-23T17:32:27.229Z,77.06
2023-05-23T17:34:53.879Z,76.87
2023-05-23T17:37:20.683Z,76.19
2023-05-23T17:39:48.729Z,75.77
2023-05-23T17:42:16.026Z,75.50
2023-05-23T17:44:43.172Z,75.78
2023-05-23T17:47:09.891Z,75.58
2023-05-23T17:49:38.837Z,75.90
2023-05-23T17:52:06.975Z,76.22
2023-05-23T17:54:33.625Z,76.64
2023-05-23T17:57:00.323Z,77.01
2023-05-23T17:59:28.148Z,77.60
2023-05-23T18:01:54.985Z,79.92
2023-05-23T18:04:22.318Z,79.36
2023-05-23T18:06:49.002Z,80.41
2023-05-23T18:09:16.775Z,81.52
2023-05-23T18:11:43.504Z,80.86
2023-05-23T18:14:10.299Z,80.60
2023-05-23T18:16:37.364Z,80.81
2023-05-23T18:19:04.898Z,80.59
2023-05-23T18:21:32.435Z,80.54
2023-05-23T18:23:59.086Z,80.46
2023-05-23T18:26:25.807Z,80.14
2023-05-23T18:28:52.614Z,79.95
2023-05-23T18:31:19.272Z,80.00
2023-05-23T18:33:46.121Z,80.00
2023-05-23T18:36:12.821Z,79.86
2023-05-23T18:38:40.983Z,79.58
2023-05-23T18:41:07.950Z,80.00
2023-05-23T18:43:34.579Z,80.17
2023-05-23T18:46:01.241Z,80.61
2023-05-23T18:48:27.929Z,80.10
2023-05-23T18:50:54.721Z,80.25
2023-05-23T18:53:21.369Z,80.14
2023-05-23T18:55:48.066Z,80.48
2023-05-23T18:58:14.929Z,80.91
2023-05-23T19:00:44.453Z,80.61
2023-05-23T19:03:11.300Z,80.96
2023-05-23T19:05:38.145Z,80.64
2023-05-23T19:08:05.027Z,80.90
2023-05-23T19:10:31.678Z,80.84
2023-05-23T19:12:58.364Z,80.73
2023-05-23T19:15:25.192Z,80.77
2023-05-23T19:17:51.898Z,80.74
2023-05-23T19:20:20.136Z,80.68
2023-05-23T19:22:51.937Z,80.62
2023-05-23T19:25:20.433Z,80.63
2023-05-23T19:27:47.101Z,80.55
2023-05-23T19:30:13.840Z,80.47
2023-05-23T19:32:40.607Z,80.42
2023-05-23T19:35:08.383Z,80.25
2023-05-23T19:37:35.182Z,80.31
2023-05-23T19:40:02.017Z,79.40
2023-05-23T19:42:28.762Z,79.37
2023-05-23T19:44:55.578Z,79.30
2023-05-23T19:47:22.355Z,79.33
2023-05-23T19:49:49.166Z,79.19
2023-05-23T19:52:15.943Z,79.23
2023-05-23T19:54:42.695Z,79.44
2023-05-23T19:57:09.406Z,79.62
2023-05-23T19:59:36.141Z,79.97
2023-05-23T20:02:02.793Z,80.27
2023-05-23T20:04:29.728Z,80.18
2023-05-23T20:06:56.745Z,80.33
2023-05-23T20:09:23.572Z,80.47
2023-05-23T20:11:50.458Z,80.62
2023-05-23T20:14:17.125Z,80.71
2023-05-23T20:16:43.920Z,80.53
2023-05-23T20:19:10.690Z,80.80
2023-05-23T20:21:37.652Z,80.66
2023-05-23T20:24:04.536Z,80.88
2023-05-23T20:26:31.574Z,80.57
2023-05-23T20:28:58.403Z,81.07
2023-05-23T20:31:25.222Z,81.06
2023-05-23T20:33:52.615Z,81.40
2023-05-23T20:36:21.141Z,82.01
2023-05-23T20:38:48.019Z,81.89
2023-05-23T20:41:14.854Z,81.97
2023-05-23T20:43:41.602Z,81.90
2023-05-23T20:46:11.709Z,81.76
2023-05-23T20:48:38.905Z,81.73
2023-05-23T20:51:06.020Z,81.93
2023-05-23T20:53:32.849Z,81.77
2023-05-23T20:55:59.793Z,82.13
2023-05-23T20:58:27.255Z,82.08
2023-05-23T21:00:54.040Z,82.20
2023-05-23T21:03:21.015Z,82.58
2023-05-23T21:05:47.728Z,83.04
2023-05-23T21:08:14.447Z,82.63
2023-05-23T21:10:41.740Z,82.67
2023-05-23T21:13:08.640Z,82.74
2023-05-23T21:15:35.365Z,82.91
2023-05-23T21:18:02.092Z,83.48
2023-05-23T21:20:29.337Z,83.27
2023-05-23T21:22:56.068Z,83.38
2023-05-23T21:25:22.861Z,82.91
2023-05-23T21:27:49.513Z,82.82
2023-05-23T21:30:16.386Z,82.96
2023-05-23T21:32:43.645Z,82.79
2023-05-23T21:35:10.645Z,82.65
2023-05-23T21:37:37.306Z,83.02
2023-05-23T21:40:04.381Z,83.14
2023-05-23T21:42:31.180Z,82.74
2023-05-23T21:44:57.939Z,82.57
2023-05-23T21:47:25.203Z,82.72
2023-05-23T21:50:05.564Z,82.36
2023-05-23T21:52:32.748Z,82.15
2023-05-23T21:54:59.563Z,82.42
2023-05-23T21:57:26.322Z,82.38
2023-05-23T21:59:53.060Z,82.54
2023-05-23T22:02:19.752Z,82.42
2023-05-23T22:04:46.740Z,82.19
2023-05-23T22:07:13.396Z,82.52
2023-05-23T22:09:40.069Z,82.62
2023-05-23T22:12:07.540Z,82.62
2023-05-23T22:14:34.181Z,82.89
2023-05-23T22:17:02.403Z,83.18
2023-05-23T22:19:30.382Z,83.40
2023-05-23T22:21:57.097Z,83.29
2023-05-23T22:24:24.097Z,83.64
2023-05-23T22:26:50.936Z,83.33
2023-05-23T22:29:17.597Z,83.39
2023-05-23T22:31:44.433Z,83.43
2023-05-23T22:34:11.232Z,84.21
2023-05-23T22:36:39.094Z,84.12
2023-05-23T22:39:05.835Z,84.31
2023-05-23T22:41:32.580Z,84.58
2023-05-23T22:43:59.633Z,84.03
2023-05-23T22:46:26.536Z,84.36
2023-05-23T22:48:55.221Z,84.57
2023-05-23T22:51:22.293Z,84.67
2023-05-23T22:53:49.064Z,84.60
2023-05-23T22:56:15.820Z,84.65
2023-05-23T22:58:42.560Z,84.86
2023-05-23T23:01:09.607Z,84.75
2023-05-23T23:03:36.454Z,84.39
2023-05-23T23:06:06.205Z,84.90
2023-05-23T23:08:33.430Z,84.98
2023-05-23T23:11:00.109Z,84.49
2023-05-23T23:13:26.902Z,85.02
2023-05-23T23:15:54.472Z,84.91
2023-05-23T23:18:21.278Z,84.21
2023-05-23T23:20:48.417Z,84.70
2023-05-23T23:23:15.213Z,84.42
2023-05-23T23:25:41.898Z,84.61
2023-05-23T23:28:08.563Z,84.41
2023-05-23T23:30:35.194Z,84.35
2023-05-23T23:33:01.982Z,84.37
2023-05-23T23:35:28.806Z,84.31
2023-05-23T23:37:55.483Z,84.60
2023-05-23T23:40:22.381Z,84.67
2023-05-23T23:42:48.980Z,84.83
2023-05-23T23:45:15.684Z,84.65
2023-05-23T23:47:42.862Z,84.90
2023-05-23T23:50:09.710Z,84.99
2023-05-23T23:52:39.136Z,85.15
2023-05-23T23:55:06.212Z,84.88
2023-05-23T23:57:32.968Z,84.88
2023-05-23T23:59:59.739Z,85.03
